createdAt,value
2023-04-10T00:00:10.174Z,12.10
2023-04-10T00:02:36.902Z,12.32
2023-04-10T00:05:03.707Z,12.25
2023-04-10T00:07:30.350Z,12.90
2023-04-10T00:09:56.912Z,12.18
2023-04-10T00:12:23.451Z,12.68
2023-04-10T00:14:49.981Z,13.20
2023-04-10T00:17:16.675Z,12.75
2023-04-10T00:19:43.231Z,12.23
2023-04-10T00:22:09.756Z,13.15
2023-04-10T00:24:36.290Z,13.75
2023-04-10T00:27:02.829Z,12.57
2023-04-10T00:29:29.374Z,12.50
2023-04-10T00:31:55.906Z,12.73
2023-04-10T00:34:22.495Z,12.23
2023-04-10T00:36:49.011Z,13.77
2023-04-10T00:39:15.538Z,13.55
2023-04-10T00:41:42.114Z,12.55
2023-04-10T00:44:08.663Z,13.85
2023-04-10T00:46:36.403Z,12.60
2023-04-10T00:49:02.888Z,12.98
2023-04-10T00:51:29.392Z,12.18
2023-04-10T00:53:56.268Z,12.85
2023-04-10T00:56:24.155Z,12.95
2023-04-10T00:58:50.684Z,14.02
2023-04-10T01:01:17.255Z,13.13
2023-04-10T01:03:43.960Z,11.77
2023-04-10T01:06:42.360Z,13.15
2023-04-10T01:09:24.373Z,12.20
2023-04-10T01:11:57.355Z,11.57
2023-04-10T01:14:26.830Z,11.68
2023-04-10T01:17:13.344Z,11.98
2023-04-10T01:20:00.101Z,11.88
2023-04-10T01:22:29.177Z,11.95
2023-04-10T01:25:14.553Z,11.70
2023-04-10T01:28:10.934Z,11.45
2023-04-10T01:30:37.486Z,11.65
2023-04-10T01:33:04.133Z,12.63
2023-04-10T01:35:30.796Z,12.90
2023-04-10T01:37:57.326Z,12.57
2023-04-10T01:40:23.847Z,11.80
2023-04-10T01:42:55.368Z,11.50
2023-04-10T01:45:27.502Z,12.40
2023-04-10T01:47:54.691Z,12.50
2023-04-10T01:50:24.233Z,11.50
2023-04-10T01:52:51.599Z,12.55
2023-04-10T01:55:19.859Z,11.57
2023-04-10T01:57:46.391Z,11.43
2023-04-10T02:00:13.406Z,12.15
2023-04-10T02:02:40.084Z,12.85
2023-04-10T02:05:07.079Z,12.55
2023-04-10T02:07:59.725Z,12.13
2023-04-10T02:10:44.712Z,11.90
2023-04-10T02:13:11.530Z,11.55
2023-04-10T02:15:38.132Z,11.65
2023-04-10T02:18:04.819Z,11.25
2023-04-10T02:20:31.389Z,12.55
2023-04-10T02:22:58.389Z,12.50
2023-04-10T02:25:24.939Z,11.73
2023-04-10T02:27:51.505Z,11.32
2023-04-10T02:30:18.013Z,12.15
2023-04-10T02:32:44.588Z,11.35
2023-04-10T02:35:11.148Z,13.25
2023-04-10T02:37:37.643Z,11.15
2023-04-10T02:40:04.558Z,11.05
2023-04-10T02:42:31.049Z,11.98
2023-04-10T02:44:57.579Z,11.18
2023-04-10T02:47:24.126Z,10.43
2023-04-10T02:49:50.718Z,11.77
2023-04-10T02:52:17.248Z,11.77
2023-04-10T02:54:43.744Z,11.52
2023-04-10T02:57:10.323Z,11.98
2023-04-10T02:59:36.853Z,12.07
2023-04-10T03:02:03.413Z,12.25
2023-04-10T03:04:32.399Z,11.18
2023-04-10T03:06:58.947Z,12.35
2023-04-10T03:09:25.501Z,10.60
2023-04-10T03:11:52.086Z,11.48
2023-04-10T03:14:18.577Z,11.15
2023-04-10T03:16:45.108Z,11.30
2023-04-10T03:19:11.619Z,11.93
2023-04-10T03:21:38.167Z,10.75
2023-04-10T03:24:04.929Z,11.85
2023-04-10T03:26:31.516Z,11.63
2023-04-10T03:28:58.027Z,11.63
2023-04-10T03:31:24.616Z,11.43
2023-04-10T03:33:51.236Z,12.15
2023-04-10T03:36:17.939Z,10.10
2023-04-10T03:38:44.508Z,10.48
2023-04-10T03:41:11.053Z,10.55
2023-04-10T03:43:37.650Z,10.85
2023-04-10T03:46:04.279Z,10.13
2023-04-10T03:48:30.915Z,10.82
2023-04-10T03:50:57.488Z,11.07
2023-04-10T03:53:24.120Z,10.80
2023-04-10T03:55:50.655Z,10.80
2023-04-10T03:58:17.153Z,10.98
2023-04-10T04:00:43.642Z,10.35
2023-04-10T04:03:10.353Z,12.65
2023-04-10T04:05:37.626Z,11.20
2023-04-10T04:08:04.148Z,12.07
2023-04-10T04:10:30.686Z,12.32
2023-04-10T04:12:57.193Z,10.27
2023-04-10T04:15:23.760Z,10.60
2023-04-10T04:17:50.307Z,11.43
2023-04-10T04:20:16.857Z,10.63
2023-04-10T04:22:43.389Z,9.85
2023-04-10T04:25:09.945Z,11.38
2023-04-10T04:27:36.487Z,10.02
2023-04-10T04:30:06.705Z,9.70
2023-04-10T04:32:33.296Z,8.77
2023-04-10T04:34:59.922Z,9.40
2023-04-10T04:37:26.520Z,8.70
2023-04-10T04:39:53.027Z,9.02
2023-04-10T04:42:19.553Z,8.82
2023-04-10T04:44:46.030Z,6.60
2023-04-10T04:47:12.548Z,6.25
2023-04-10T04:49:39.052Z,5.03
2023-04-10T04:52:05.589Z,3.80
2023-04-10T04:54:32.132Z,3.03
2023-04-10T04:56:58.625Z,4.68
2023-04-10T04:59:25.123Z,4.43
2023-04-10T05:01:51.834Z,3.97
2023-04-10T05:04:18.625Z,4.22
2023-04-10T05:06:45.213Z,4.00
2023-04-10T05:09:11.697Z,4.78
2023-04-10T05:11:38.196Z,4.85
2023-04-10T05:14:04.698Z,3.28
2023-04-10T05:16:31.212Z,4.88
2023-04-10T05:18:58.079Z,4.38
2023-04-10T05:21:24.810Z,5.32
2023-04-10T05:23:51.333Z,4.10
2023-04-10T05:26:17.857Z,4.55
2023-04-10T05:28:44.386Z,5.32
2023-04-10T05:31:10.949Z,5.00
2023-04-10T05:33:37.518Z,4.15
2023-04-10T05:36:04.403Z,5.35
2023-04-10T05:38:30.985Z,5.00
2023-04-10T05:40:57.510Z,3.83
2023-04-10T05:43:24.059Z,5.10
2023-04-10T05:45:50.556Z,4.43
2023-04-10T05:48:17.063Z,3.72
2023-04-10T05:50:43.643Z,3.90
2023-04-10T05:53:13.047Z,4.05
2023-04-10T05:55:39.564Z,4.05
2023-04-10T05:58:06.111Z,4.47
2023-04-10T06:00:32.635Z,4.20
2023-04-10T06:02:59.279Z,5.05
2023-04-10T06:05:26.048Z,5.75
2023-04-10T06:07:52.677Z,5.30
2023-04-10T06:10:19.388Z,4.30
2023-04-10T06:12:45.924Z,4.38
2023-04-10T06:15:12.473Z,5.85
2023-04-10T06:17:45.029Z,6.13
2023-04-10T06:20:11.919Z,3.95
2023-04-10T06:22:38.411Z,4.68
2023-04-10T06:25:05.180Z,5.13
2023-04-10T06:27:31.727Z,4.45
2023-04-10T06:29:58.225Z,4.63
2023-04-10T06:32:24.822Z,4.22
2023-04-10T06:34:51.366Z,5.20
2023-04-10T06:37:17.968Z,5.70
2023-04-10T06:39:44.522Z,4.57
2023-04-10T06:42:11.081Z,5.72
2023-04-10T06:44:37.585Z,3.92
2023-04-10T06:47:04.214Z,5.10
2023-04-10T06:49:30.800Z,4.18
2023-04-10T06:51:57.365Z,5.68
2023-04-10T06:54:23.878Z,5.63
2023-04-10T06:56:50.501Z,5.75
2023-04-10T06:59:17.065Z,4.57
2023-04-10T07:01:43.668Z,5.70
2023-04-10T07:04:10.420Z,5.57
2023-04-10T07:06:37.084Z,5.13
2023-04-10T07:09:03.709Z,4.15
2023-04-10T07:11:30.248Z,5.25
2023-04-10T07:13:56.753Z,4.95
2023-04-10T07:16:23.325Z,5.22
2023-04-10T07:18:49.881Z,4.95
2023-04-10T07:21:16.358Z,5.30
2023-04-10T07:23:42.913Z,5.07
2023-04-10T07:26:09.424Z,4.85
2023-04-10T07:28:35.902Z,5.32
2023-04-10T07:31:02.443Z,4.75
2023-04-10T07:33:29.024Z,6.45
2023-04-10T07:35:55.624Z,3.88
2023-04-10T07:38:22.127Z,5.00
2023-04-10T07:40:48.614Z,5.43
2023-04-10T07:43:15.146Z,5.38
2023-04-10T07:45:41.657Z,3.85
2023-04-10T07:48:08.463Z,4.88
2023-04-10T07:50:35.087Z,3.65
2023-04-10T07:53:01.651Z,5.20
2023-04-10T07:55:28.173Z,4.95
2023-04-10T07:57:54.831Z,4.75
2023-04-10T08:00:21.389Z,4.45
2023-04-10T08:02:48.100Z,4.82
2023-04-10T08:05:14.771Z,5.53
2023-04-10T08:07:41.307Z,5.13
2023-04-10T08:10:09.446Z,5.57
2023-04-10T08:12:36.375Z,5.70
2023-04-10T08:15:02.881Z,5.03
2023-04-10T08:17:29.515Z,4.25
2023-04-10T08:19:56.443Z,4.93
2023-04-10T08:22:22.967Z,4.95
2023-04-10T08:24:49.507Z,4.95
2023-04-10T08:27:16.047Z,4.05
2023-04-10T08:29:43.115Z,5.07
2023-04-10T08:32:09.648Z,4.53
2023-04-10T08:34:36.158Z,4.75
2023-04-10T08:37:06.567Z,4.47
2023-04-10T08:39:38.394Z,4.63
2023-04-10T08:42:06.103Z,4.07
2023-04-10T08:44:32.629Z,4.35
2023-04-10T08:46:59.811Z,4.57
2023-04-10T08:49:35.652Z,4.03
2023-04-10T08:52:02.213Z,4.35
2023-04-10T08:54:29.358Z,4.10
2023-04-10T08:56:56.234Z,4.10
2023-04-10T08:59:22.766Z,4.72
2023-04-10T09:01:49.437Z,3.97
2023-04-10T09:04:16.123Z,3.40
2023-04-10T09:06:43.290Z,4.03
2023-04-10T09:09:09.853Z,3.83
2023-04-10T09:11:51.821Z,3.85
2023-04-10T09:14:21.686Z,3.97
2023-04-10T09:16:48.629Z,3.63
2023-04-10T09:19:31.340Z,4.35
2023-04-10T09:21:57.895Z,3.97
2023-04-10T09:24:24.684Z,4.05
2023-04-10T09:26:51.169Z,3.78
2023-04-10T09:29:17.778Z,3.33
2023-04-10T09:31:44.356Z,3.25
2023-04-10T09:34:17.444Z,3.88
2023-04-10T09:36:53.312Z,4.57
2023-04-10T09:39:19.861Z,3.75
2023-04-10T09:41:53.125Z,3.88
2023-04-10T09:44:31.378Z,3.72
2023-04-10T09:47:18.014Z,2.70
2023-04-10T09:49:48.729Z,2.33
2023-04-10T09:52:22.082Z,3.10
2023-04-10T09:54:48.665Z,2.53
2023-04-10T09:57:16.705Z,2.38
2023-04-10T09:59:43.677Z,2.05
2023-04-10T10:02:10.783Z,2.30
2023-04-10T10:04:37.455Z,2.15
2023-04-10T10:07:04.016Z,2.60
2023-04-10T10:09:30.514Z,2.25
2023-04-10T10:11:57.010Z,2.38
2023-04-10T10:14:23.580Z,1.90
2023-04-10T10:16:50.569Z,2.17
2023-04-10T10:19:41.502Z,2.45
2023-04-10T10:22:08.017Z,2.15
2023-04-10T10:24:34.569Z,2.30
2023-04-10T10:27:01.075Z,2.42
2023-04-10T10:29:27.614Z,2.40
2023-04-10T10:31:54.242Z,1.90
2023-04-10T10:34:20.864Z,2.00
2023-04-10T10:36:47.369Z,2.17
2023-04-10T10:39:40.642Z,2.33
2023-04-10T10:42:22.977Z,2.28
2023-04-10T10:45:11.252Z,2.65
2023-04-10T10:47:41.289Z,2.15
2023-04-10T10:50:08.173Z,1.92
2023-04-10T10:52:51.084Z,1.63
2023-04-10T10:55:23.661Z,2.20
2023-04-10T10:58:00.053Z,1.95
2023-04-10T11:00:27.974Z,2.25
2023-04-10T11:03:20.629Z,1.70
2023-04-10T11:06:03.771Z,2.05
2023-04-10T11:08:32.954Z,1.77
2023-04-10T11:11:00.176Z,1.67
2023-04-10T11:13:26.715Z,2.15
2023-04-10T11:15:53.190Z,2.13
2023-04-10T11:18:19.706Z,2.00
2023-04-10T11:21:09.878Z,2.15
2023-04-10T11:23:36.378Z,1.95
2023-04-10T11:26:02.916Z,1.55
2023-04-10T11:28:32.116Z,1.70
2023-04-10T11:31:16.902Z,2.00
2023-04-10T11:33:43.436Z,2.22
2023-04-10T11:36:09.986Z,1.38
2023-04-10T11:38:36.494Z,1.58
2023-04-10T11:41:03.829Z,2.17
2023-04-10T11:43:30.737Z,1.63
2023-04-10T11:46:01.575Z,1.88
2023-04-10T11:48:28.331Z,2.25
2023-04-10T11:50:54.987Z,1.63
2023-04-10T11:53:21.595Z,1.77
2023-04-10T11:55:48.109Z,2.05
2023-04-10T11:58:27.929Z,1.80
2023-04-10T12:00:57.870Z,1.60
2023-04-10T12:03:37.424Z,2.08
2023-04-10T12:06:16.321Z,1.83
2023-04-10T12:08:43.884Z,1.40
2023-04-10T12:11:10.463Z,1.63
2023-04-10T12:13:36.968Z,1.75
2023-04-10T12:16:10.050Z,1.88
2023-04-10T12:18:36.733Z,1.73
2023-04-10T12:21:05.033Z,1.75
2023-04-10T12:23:32.150Z,1.70
2023-04-10T12:26:17.671Z,1.85
2023-04-10T12:28:55.253Z,1.60
2023-04-10T12:31:32.542Z,1.38
2023-04-10T12:33:59.501Z,1.50
2023-04-10T12:36:27.486Z,1.92
2023-04-10T12:38:54.250Z,1.30
2023-04-10T12:41:25.520Z,1.23
2023-04-10T12:43:53.191Z,1.15
2023-04-10T12:46:29.180Z,1.23
2023-04-10T12:48:56.300Z,1.48
2023-04-10T12:51:43.319Z,1.13
2023-04-10T12:54:09.822Z,1.33
2023-04-10T12:56:43.230Z,1.33
2023-04-10T12:59:09.745Z,1.63
2023-04-10T13:01:39.596Z,1.17
2023-04-10T13:04:06.564Z,0.93
2023-04-10T13:06:33.169Z,1.00
2023-04-10T13:08:59.706Z,1.50
2023-04-10T13:11:26.197Z,1.70
2023-04-10T13:13:52.774Z,1.35
2023-04-10T13:16:19.345Z,1.17
2023-04-10T13:18:45.951Z,1.90
2023-04-10T13:21:12.454Z,1.13
2023-04-10T13:23:38.955Z,1.30
2023-04-10T13:26:05.561Z,1.75
2023-04-10T13:28:32.060Z,1.38
2023-04-10T13:30:58.596Z,1.38
2023-04-10T13:33:25.114Z,1.10
2023-04-10T13:35:51.701Z,1.42
2023-04-10T13:38:20.015Z,1.42
2023-04-10T13:40:47.871Z,1.20
2023-04-10T13:43:14.409Z,1.40
2023-04-10T13:45:41.275Z,1.40
2023-04-10T13:48:07.900Z,0.93
2023-04-10T13:50:34.551Z,1.52
2023-04-10T13:53:01.125Z,1.30
2023-04-10T13:55:27.653Z,1.45
2023-04-10T13:57:54.193Z,1.30
2023-04-10T14:00:20.786Z,1.30
2023-04-10T14:02:47.420Z,1.50
2023-04-10T14:05:13.984Z,1.50
2023-04-10T14:07:40.504Z,1.25
2023-04-10T14:10:07.626Z,1.15
2023-04-10T14:12:35.327Z,1.80
2023-04-10T14:15:02.658Z,1.52
2023-04-10T14:17:29.286Z,2.10
2023-04-10T14:19:55.768Z,1.63
2023-04-10T14:22:22.288Z,1.65
2023-04-10T14:24:48.983Z,1.42
2023-04-10T14:27:16.499Z,1.80
2023-04-10T14:29:53.909Z,1.42
2023-04-10T14:32:21.165Z,1.30
2023-04-10T14:34:47.765Z,1.58
2023-04-10T14:37:15.411Z,1.88
2023-04-10T14:39:42.231Z,1.52
2023-04-10T14:42:08.750Z,2.17
2023-04-10T14:44:35.283Z,1.83
2023-04-10T14:47:01.757Z,1.75
2023-04-10T14:49:28.352Z,1.90
2023-04-10T14:51:54.910Z,1.88
2023-04-10T14:54:21.460Z,1.67
2023-04-10T14:56:48.465Z,1.58
2023-04-10T14:59:15.649Z,1.90
2023-04-10T15:01:42.236Z,1.98
2023-04-10T15:04:08.915Z,1.60
2023-04-10T15:06:35.645Z,2.42
2023-04-10T15:09:02.830Z,2.70
2023-04-10T15:11:29.397Z,2.22
2023-04-10T15:13:56.115Z,1.92
2023-04-10T15:16:22.840Z,2.10
2023-04-10T15:18:49.406Z,2.03
2023-04-10T15:21:16.329Z,1.58
2023-04-10T15:23:42.957Z,1.48
2023-04-10T15:26:13.274Z,1.73
2023-04-10T15:28:40.175Z,1.77
2023-04-10T15:31:06.829Z,2.28
2023-04-10T15:33:33.359Z,1.90
2023-04-10T15:35:59.996Z,1.83
2023-04-10T15:38:26.512Z,1.45
2023-04-10T15:40:53.031Z,1.33
2023-04-10T15:43:19.528Z,1.15
2023-04-10T15:45:46.085Z,1.52
2023-04-10T15:48:12.938Z,1.10
2023-04-10T15:50:39.444Z,1.13
2023-04-10T15:53:06.210Z,1.38
2023-04-10T15:55:32.693Z,1.30
2023-04-10T15:58:01.618Z,1.25
2023-04-10T16:00:29.026Z,1.30
2023-04-10T16:02:56.707Z,1.02
2023-04-10T16:05:23.394Z,1.13
2023-04-10T16:07:49.949Z,1.40
2023-04-10T16:10:16.520Z,0.88
2023-04-10T16:12:43.072Z,1.30
2023-04-10T16:15:09.812Z,1.60
2023-04-10T16:17:36.373Z,1.45
2023-04-10T16:20:08.973Z,1.35
2023-04-10T16:22:35.515Z,1.02
2023-04-10T16:27:33.397Z,1.40
2023-04-10T16:29:59.926Z,1.33
2023-04-10T16:32:26.465Z,1.67
2023-04-10T16:34:54.013Z,1.20
2023-04-10T16:37:20.531Z,1.33
2023-04-10T16:39:47.027Z,1.40
2023-04-10T16:42:13.558Z,1.02
2023-04-10T16:44:40.055Z,1.08
2023-04-10T16:47:06.710Z,1.42
2023-04-10T16:49:33.301Z,1.35
2023-04-10T16:51:59.813Z,1.00
2023-04-10T16:54:26.396Z,1.15
2023-04-10T16:56:52.969Z,1.73
2023-04-10T16:59:19.458Z,1.27
2023-04-10T17:01:46.047Z,1.30
2023-04-10T17:04:13.037Z,1.50
2023-04-10T17:06:39.666Z,1.58
2023-04-10T17:09:06.153Z,1.13
2023-04-10T17:11:32.674Z,1.25
2023-04-10T17:13:59.209Z,1.30
2023-04-10T17:16:25.848Z,1.42
2023-04-10T17:18:52.582Z,1.52
2023-04-10T17:21:20.008Z,1.13
2023-04-10T17:23:46.554Z,1.70
2023-04-10T17:26:14.298Z,1.40
2023-04-10T17:28:42.117Z,1.40
2023-04-10T17:31:08.693Z,1.38
2023-04-10T17:33:35.272Z,1.63
2023-04-10T17:36:01.921Z,1.63
2023-04-10T17:38:28.442Z,1.92
2023-04-10T17:40:55.032Z,1.67
2023-04-10T17:43:21.823Z,1.27
2023-04-10T17:45:48.340Z,1.45
2023-04-10T17:48:15.026Z,1.23
2023-04-10T17:50:41.719Z,1.70
2023-04-10T17:53:08.235Z,1.30
2023-04-10T17:55:38.702Z,1.70
2023-04-10T17:58:05.268Z,1.50
2023-04-10T18:00:32.885Z,1.58
2023-04-10T18:02:59.415Z,1.65
2023-04-10T18:05:26.341Z,1.70
2023-04-10T18:07:52.839Z,1.45
2023-04-10T18:10:19.474Z,1.60
2023-04-10T18:12:46.017Z,1.15
2023-04-10T18:15:12.515Z,1.58
2023-04-10T18:17:39.487Z,1.60
2023-04-10T18:20:07.176Z,1.45
2023-04-10T18:22:33.731Z,1.20
2023-04-10T18:25:00.213Z,1.60
2023-04-10T18:27:26.949Z,1.45
2023-04-10T18:29:53.502Z,1.70
2023-04-10T18:32:20.068Z,1.45
2023-04-10T18:34:46.609Z,1.08
2023-04-10T18:37:13.095Z,1.50
2023-04-10T18:39:39.589Z,1.48
2023-04-10T18:42:06.762Z,1.52
2023-04-10T18:44:34.714Z,1.50
2023-04-10T18:47:04.902Z,1.50
2023-04-10T18:49:31.817Z,2.00
2023-04-10T18:51:59.068Z,1.65
2023-04-10T18:54:25.675Z,1.83
2023-04-10T18:56:52.283Z,1.60
2023-04-10T18:59:18.755Z,1.80
2023-04-10T19:01:45.316Z,2.00
2023-04-10T19:04:11.954Z,2.53
2023-04-10T19:06:38.505Z,2.28
2023-04-10T19:09:05.114Z,2.17
2023-04-10T19:11:32.275Z,2.78
2023-04-10T19:13:59.084Z,2.20
2023-04-10T19:16:25.680Z,2.65
2023-04-10T19:18:55.367Z,2.50
2023-04-10T19:21:22.120Z,2.42
2023-04-10T19:23:49.231Z,2.47
2023-04-10T19:26:15.939Z,2.25
2023-04-10T19:28:42.451Z,2.22
2023-04-10T19:31:09.044Z,2.85
2023-04-10T19:33:35.630Z,2.60
2023-04-10T19:36:02.278Z,2.58
2023-04-10T19:38:28.820Z,2.42
2023-04-10T19:40:55.362Z,2.65
2023-04-10T19:43:21.930Z,2.70
2023-04-10T19:45:48.461Z,2.20
2023-04-10T19:48:14.970Z,2.63
2023-04-10T19:50:41.686Z,2.85
2023-04-10T19:53:08.290Z,2.40
2023-04-10T19:55:34.851Z,2.50
2023-04-10T19:58:01.500Z,2.97
2023-04-10T20:00:28.003Z,2.40
2023-04-10T20:02:54.908Z,2.40
2023-04-10T20:05:21.645Z,2.95
2023-04-10T20:07:48.201Z,1.92
2023-04-10T20:10:14.774Z,2.85
2023-04-10T20:12:41.278Z,2.60
2023-04-10T20:15:08.418Z,2.15
2023-04-10T20:17:34.975Z,2.50
2023-04-10T20:20:01.629Z,2.35
2023-04-10T20:22:29.036Z,2.55
2023-04-10T20:24:55.647Z,2.25
2023-04-10T20:27:22.148Z,2.20
2023-04-10T20:29:49.712Z,2.28
2023-04-10T20:32:16.297Z,2.53
2023-04-10T20:34:42.808Z,2.05
2023-04-10T20:37:09.339Z,2.38
2023-04-10T20:39:35.845Z,1.98
2023-04-10T20:42:02.424Z,2.33
2023-04-10T20:44:28.947Z,2.40
2023-04-10T20:46:55.527Z,2.67
2023-04-10T20:49:22.122Z,2.20
2023-04-10T20:51:48.629Z,2.63
2023-04-10T20:54:15.180Z,2.63
2023-04-10T20:56:43.795Z,2.40
2023-04-10T20:59:10.709Z,2.40
2023-04-10T21:01:37.395Z,2.33
2023-04-10T21:04:04.157Z,2.25
2023-04-10T21:06:32.418Z,2.40
2023-04-10T21:08:58.993Z,2.38
2023-04-10T21:11:28.548Z,1.95
2023-04-10T21:16:21.637Z,2.00
2023-04-10T21:18:48.261Z,2.05
2023-04-10T21:21:14.835Z,2.00
2023-04-10T21:23:41.442Z,1.77
2023-04-10T21:26:08.082Z,1.70
2023-04-10T21:28:34.627Z,1.73
2023-04-10T21:31:01.126Z,1.60
2023-04-10T21:33:27.674Z,1.15
2023-04-10T21:35:54.277Z,1.25
2023-04-10T21:38:20.788Z,1.13
2023-04-10T21:40:51.426Z,1.48
2023-04-10T21:43:18.173Z,1.65
2023-04-10T21:45:44.723Z,1.02
2023-04-10T21:48:11.346Z,1.23
2023-04-10T21:50:37.870Z,1.25
2023-04-10T21:53:04.400Z,1.30
2023-04-10T21:55:30.921Z,1.13
2023-04-10T21:57:57.667Z,1.38
2023-04-10T22:00:24.234Z,0.85
2023-04-10T22:02:51.831Z,1.40
2023-04-10T22:05:18.607Z,1.65
2023-04-10T22:07:45.174Z,1.00
2023-04-10T22:10:11.696Z,1.60
2023-04-10T22:12:38.293Z,1.25
2023-04-10T22:15:05.168Z,1.48
2023-04-10T22:17:31.761Z,1.20
2023-04-10T22:19:58.392Z,1.15
2023-04-10T22:22:24.956Z,1.50
2023-04-10T22:24:51.483Z,1.65
2023-04-10T22:27:18.041Z,1.63
2023-04-10T22:29:50.126Z,1.38
2023-04-10T22:32:23.069Z,1.65
2023-04-10T22:34:49.613Z,1.42
2023-04-10T22:37:16.126Z,1.65
2023-04-10T22:39:42.690Z,1.50
2023-04-10T22:42:09.221Z,1.85
2023-04-10T22:44:35.757Z,1.48
2023-04-10T22:47:02.291Z,1.50
2023-04-10T22:49:28.798Z,1.50
2023-04-10T22:51:55.334Z,1.70
2023-04-10T22:54:21.876Z,1.50
2023-04-10T22:56:48.444Z,1.42
2023-04-10T22:59:14.937Z,1.55
2023-04-10T23:01:41.625Z,1.67
2023-04-10T23:04:08.230Z,1.70
2023-04-10T23:06:34.750Z,1.52
2023-04-10T23:09:01.324Z,1.63
2023-04-10T23:11:27.824Z,1.45
2023-04-10T23:13:54.360Z,1.75
2023-04-10T23:16:20.881Z,1.73
2023-04-10T23:18:47.486Z,1.73
2023-04-10T23:21:14.015Z,1.17
2023-04-10T23:23:40.552Z,1.80
2023-04-10T23:26:07.332Z,1.10
2023-04-10T23:28:33.860Z,1.38
2023-04-10T23:31:00.429Z,1.70
2023-04-10T23:33:27.031Z,1.52
2023-04-10T23:35:53.618Z,1.20
2023-04-10T23:38:20.109Z,1.55
2023-04-10T23:40:46.708Z,0.80
2023-04-10T23:43:13.229Z,1.10
2023-04-10T23:45:39.718Z,1.67
2023-04-10T23:48:07.420Z,1.10
2023-04-10T23:50:34.016Z,1.30
2023-04-10T23:53:00.534Z,1.50
2023-04-10T23:55:27.274Z,1.42
2023-04-10T23:57:53.837Z,0.80
